createdAt,value
2019-02-22T00:00:34.489Z,37.13
2019-02-22T00:03:03.534Z,32.77
2019-02-22T00:05:32.484Z,34.37
2019-02-22T00:08:03.051Z,41.80
2019-02-22T00:10:32.007Z,43.23
2019-02-22T00:13:00.957Z,44.67
2019-02-22T00:15:29.943Z,40.43
2019-02-22T00:17:58.875Z,40.10
2019-02-22T00:20:27.795Z,42.37
2019-02-22T00:22:56.806Z,44.50
2019-02-22T00:25:25.745Z,49.80
2019-02-22T00:27:57.640Z,49.43
2019-02-22T00:30:26.652Z,46.43
2019-02-22T00:32:55.634Z,51.53
2019-02-22T00:35:24.680Z,47.87
2019-02-22T00:37:53.666Z,52.50
2019-02-22T00:40:22.580Z,48.40
2019-02-22T00:42:51.563Z,54.23
2019-02-22T00:45:20.521Z,47.17
2019-02-22T00:47:49.441Z,45.47
2019-02-22T00:50:18.367Z,43.17
2019-02-22T00:52:47.315Z,44.60
2019-02-22T00:55:16.315Z,42.67
2019-02-22T00:57:45.241Z,49.10
2019-02-22T01:00:14.775Z,44.77
2019-02-22T01:02:43.732Z,41.93
2019-02-22T01:05:12.767Z,43.13
2019-02-22T01:07:41.749Z,49.13
2019-02-22T01:10:10.766Z,46.00
2019-02-22T01:12:39.704Z,42.17
2019-02-22T01:15:08.921Z,42.83
2019-02-22T01:17:37.834Z,42.00
2019-02-22T01:20:07.023Z,43.90
2019-02-22T01:22:36.339Z,45.73
2019-02-22T01:25:05.392Z,44.17
2019-02-22T01:27:34.313Z,47.80
2019-02-22T01:30:03.269Z,45.43
2019-02-22T01:32:32.182Z,45.90
2019-02-22T01:35:01.123Z,41.90
2019-02-22T01:37:30.175Z,45.53
2019-02-22T01:39:59.084Z,45.37
2019-02-22T01:42:28.008Z,44.67
2019-02-22T01:44:56.973Z,44.23
2019-02-22T01:47:25.939Z,43.33
2019-02-22T01:49:54.915Z,45.50
2019-02-22T01:52:23.999Z,39.00
2019-02-22T01:54:52.951Z,43.90
2019-02-22T01:57:21.987Z,44.90
2019-02-22T01:59:58.322Z,47.50
2019-02-22T02:02:27.388Z,42.43
2019-02-22T02:04:56.416Z,37.23
2019-02-22T02:07:25.513Z,42.73
2019-02-22T02:09:56.034Z,40.03
2019-02-22T02:12:25.060Z,39.27
2019-02-22T02:14:54.023Z,40.63
2019-02-22T02:17:22.944Z,40.10
2019-02-22T02:19:51.892Z,40.73
2019-02-22T02:22:20.924Z,40.33
2019-02-22T02:24:49.906Z,36.03
2019-02-22T02:27:18.902Z,37.03
2019-02-22T02:29:47.868Z,35.07
2019-02-22T02:32:16.800Z,36.27
2019-02-22T02:34:45.705Z,40.77
2019-02-22T02:37:14.755Z,36.30
2019-02-22T02:39:43.693Z,37.83
2019-02-22T02:42:12.686Z,35.17
2019-02-22T02:44:41.714Z,37.77
2019-02-22T02:47:10.648Z,36.97
2019-02-22T02:49:39.615Z,34.47
2019-02-22T02:52:08.607Z,34.33
2019-02-22T02:54:37.715Z,40.47
2019-02-22T02:57:06.679Z,38.43
2019-02-22T02:59:35.625Z,27.17
2019-02-22T03:02:06.784Z,31.80
2019-02-22T03:04:35.800Z,36.23
2019-02-22T03:07:09.731Z,34.77
2019-02-22T03:09:38.645Z,31.27
2019-02-22T03:12:07.599Z,34.27
2019-02-22T03:14:36.603Z,36.70
2019-02-22T03:17:05.570Z,41.80
2019-02-22T03:19:34.553Z,33.23
2019-02-22T03:22:03.586Z,34.07
2019-02-22T03:24:32.540Z,37.20
2019-02-22T03:27:01.488Z,36.60
2019-02-22T03:29:30.587Z,40.27
2019-02-22T03:31:59.604Z,38.27
2019-02-22T03:34:28.548Z,33.93
2019-02-22T03:36:57.588Z,41.87
2019-02-22T03:39:26.596Z,39.70
2019-02-22T03:41:55.636Z,39.90
2019-02-22T03:44:24.615Z,40.40
2019-02-22T03:46:53.583Z,40.47
2019-02-22T03:49:22.600Z,40.30
2019-02-22T03:51:54.569Z,40.90
2019-02-22T03:54:23.646Z,43.40
2019-02-22T03:56:52.640Z,41.80
2019-02-22T03:59:21.625Z,36.27
2019-02-22T04:01:50.632Z,43.87
2019-02-22T04:04:19.709Z,39.07
2019-02-22T04:06:48.743Z,37.40
2019-02-22T04:09:17.677Z,37.20
2019-02-22T04:11:46.692Z,42.73
2019-02-22T04:14:15.808Z,42.87
2019-02-22T04:16:44.756Z,37.53
2019-02-22T04:19:13.748Z,39.13
2019-02-22T04:21:42.770Z,42.67
2019-02-22T04:24:11.704Z,36.17
2019-02-22T04:26:40.636Z,39.93
2019-02-22T04:29:09.568Z,40.67
2019-02-22T04:31:38.568Z,39.30
2019-02-22T04:34:07.595Z,34.53
2019-02-22T04:36:36.609Z,34.53
2019-02-22T04:39:06.291Z,27.97
2019-02-22T04:41:35.281Z,36.80
2019-02-22T04:44:04.248Z,36.67
2019-02-22T04:46:33.246Z,34.37
2019-02-22T04:49:02.228Z,29.23
2019-02-22T04:51:31.210Z,29.90
2019-02-22T04:54:00.152Z,28.70
2019-02-22T04:56:29.152Z,25.70
2019-02-22T04:58:58.254Z,30.07
2019-02-22T05:01:27.170Z,29.10
2019-02-22T05:03:56.172Z,25.90
2019-02-22T05:06:25.178Z,29.63
2019-02-22T05:08:54.091Z,28.27
2019-02-22T05:11:23.047Z,30.83
2019-02-22T05:13:52.085Z,26.87
2019-02-22T05:16:21.031Z,29.60
2019-02-22T05:18:50.039Z,29.93
2019-02-22T05:21:18.503Z,27.73
2019-02-22T05:23:46.987Z,29.57
2019-02-22T05:26:15.951Z,31.70
2019-02-22T05:28:44.919Z,31.67
2019-02-22T05:31:13.876Z,23.30
2019-02-22T05:33:42.817Z,27.00
2019-02-22T05:36:11.976Z,23.30
2019-02-22T05:38:40.901Z,27.47
2019-02-22T05:41:09.864Z,21.57
2019-02-22T05:43:38.798Z,29.33
2019-02-22T05:46:07.747Z,30.30
2019-02-22T05:48:38.881Z,22.37
2019-02-22T05:51:07.531Z,30.57
2019-02-22T05:53:36.484Z,24.40
2019-02-22T05:56:05.420Z,26.77
2019-02-22T05:58:34.610Z,25.57
2019-02-22T06:01:06.622Z,27.03
2019-02-22T06:03:34.362Z,28.90
2019-02-22T06:06:03.285Z,26.80
2019-02-22T06:08:32.261Z,29.43
2019-02-22T06:11:01.324Z,26.20
2019-02-22T06:13:30.288Z,21.13
2019-02-22T06:15:59.380Z,29.90
2019-02-22T06:18:28.428Z,31.67
2019-02-22T06:20:57.408Z,31.77
2019-02-22T06:23:26.364Z,33.00
2019-02-22T06:25:55.306Z,28.50
2019-02-22T06:28:24.368Z,28.33
2019-02-22T06:30:53.318Z,26.83
2019-02-22T06:33:22.332Z,37.63
2019-02-22T06:35:51.379Z,27.93
2019-02-22T06:38:20.423Z,30.63
2019-02-22T06:40:49.411Z,29.43
2019-02-22T06:43:18.511Z,26.20
2019-02-22T06:45:47.621Z,25.20
2019-02-22T06:48:16.605Z,21.70
2019-02-22T06:50:45.557Z,26.67
2019-02-22T06:53:14.491Z,29.60
2019-02-22T06:55:43.495Z,25.87
2019-02-22T06:58:12.527Z,29.17
2019-02-22T07:00:41.480Z,27.20
2019-02-22T07:03:12.030Z,27.83
2019-02-22T07:05:41.670Z,24.60
2019-02-22T07:08:11.601Z,25.43
2019-02-22T07:10:58.611Z,30.43
2019-02-22T07:13:27.546Z,23.90
2019-02-22T07:15:57.291Z,26.03
2019-02-22T07:18:26.828Z,28.87
2019-02-22T07:20:56.104Z,27.10
2019-02-22T07:23:25.414Z,30.27
2019-02-22T07:25:54.454Z,28.57
2019-02-22T07:28:23.976Z,24.20
2019-02-22T07:30:55.449Z,26.47
2019-02-22T07:33:25.164Z,25.90
2019-02-22T07:35:54.594Z,23.90
2019-02-22T07:38:23.865Z,22.13
2019-02-22T07:40:53.359Z,23.60
2019-02-22T07:43:22.731Z,20.67
2019-02-22T07:45:52.368Z,22.67
2019-02-22T07:48:21.964Z,21.53
2019-02-22T07:50:57.446Z,20.27
2019-02-22T07:53:23.349Z,17.37
2019-02-22T07:55:52.883Z,22.93
2019-02-22T07:58:22.635Z,17.67
2019-02-22T08:00:52.301Z,18.03
2019-02-22T08:03:21.557Z,18.00
2019-02-22T08:05:50.841Z,13.90
2019-02-22T08:08:23.077Z,14.93
2019-02-22T08:10:52.572Z,12.40
2019-02-22T08:13:22.289Z,15.07
2019-02-22T08:15:54.108Z,11.90
2019-02-22T08:18:24.667Z,12.87
2019-02-22T08:20:54.301Z,13.00
2019-02-22T08:23:27.954Z,12.30
2019-02-22T08:25:59.788Z,11.10
2019-02-22T08:28:34.103Z,12.40
2019-02-22T08:31:04.383Z,13.53
2019-02-22T08:33:34.106Z,13.57
2019-02-22T08:36:04.152Z,15.77
2019-02-22T08:38:33.278Z,17.03
2019-02-22T08:41:03.202Z,17.17
2019-02-22T08:43:32.298Z,15.33
2019-02-22T08:46:01.687Z,12.73
2019-02-22T08:48:31.890Z,12.13
2019-02-22T08:51:00.943Z,12.20
2019-02-22T08:53:29.947Z,9.17
2019-02-22T08:55:58.944Z,9.53
2019-02-22T08:58:27.927Z,9.93
2019-02-22T09:00:57.012Z,13.17
2019-02-22T09:03:26.754Z,9.03
2019-02-22T09:05:56.064Z,8.80
2019-02-22T09:08:25.699Z,9.83
2019-02-22T09:11:00.501Z,10.80
2019-02-22T09:13:25.276Z,11.45
2019-02-22T09:15:54.243Z,9.23
2019-02-22T09:18:23.322Z,10.33
2019-02-22T09:20:52.283Z,11.10
2019-02-22T09:23:21.311Z,12.13
2019-02-22T09:26:03.461Z,15.23
2019-02-22T09:28:32.538Z,12.77
2019-02-22T09:31:01.480Z,15.13
2019-02-22T09:33:30.473Z,17.83
2019-02-22T09:35:59.558Z,16.93
2019-02-22T09:38:28.476Z,20.53
2019-02-22T09:40:57.623Z,21.30
2019-02-22T09:43:26.666Z,19.07
2019-02-22T09:45:55.769Z,19.63
2019-02-22T09:48:24.805Z,18.37
2019-02-22T09:50:53.735Z,17.47
2019-02-22T09:53:22.655Z,18.03
2019-02-22T09:55:51.707Z,20.13
2019-02-22T09:58:20.699Z,17.30
2019-02-22T10:00:49.790Z,18.67
2019-02-22T10:03:18.824Z,16.87
2019-02-22T10:05:48.021Z,15.27
2019-02-22T10:08:17.123Z,12.80
2019-02-22T10:10:46.351Z,10.20
2019-02-22T10:16:16.855Z,10.67
2019-02-22T10:19:02.918Z,9.07
2019-02-22T10:21:32.032Z,12.33
2019-02-22T10:24:01.066Z,13.13
2019-02-22T10:26:30.030Z,10.27
2019-02-22T10:28:59.001Z,10.07
2019-02-22T10:31:28.000Z,9.13
2019-02-22T10:33:56.911Z,11.67
2019-02-22T10:37:32.555Z,8.93
2019-02-22T10:40:01.612Z,10.47
2019-02-22T10:42:30.669Z,12.03
2019-02-22T10:44:59.575Z,12.30
2019-02-22T10:47:28.701Z,8.30
2019-02-22T10:50:35.726Z,11.63
2019-02-22T10:53:04.702Z,13.50
2019-02-22T10:55:33.707Z,15.33
2019-02-22T10:58:04.095Z,15.17
2019-02-22T11:00:33.240Z,11.57
2019-02-22T11:03:02.249Z,12.97
2019-02-22T11:05:31.320Z,12.07
2019-02-22T11:08:00.226Z,11.83
2019-02-22T11:10:30.035Z,12.33
2019-02-22T11:12:59.050Z,14.07
2019-02-22T11:15:28.085Z,12.90
2019-02-22T11:17:57.211Z,12.33
2019-02-22T11:20:26.197Z,14.80
2019-02-22T11:22:55.332Z,12.27
2019-02-22T11:25:24.388Z,10.10
2019-02-22T11:27:53.447Z,11.57
2019-02-22T11:30:22.488Z,10.60
2019-02-22T11:32:51.632Z,10.97
2019-02-22T11:35:23.309Z,11.97
2019-02-22T11:37:51.561Z,12.90
2019-02-22T11:40:20.491Z,11.53
2019-02-22T11:42:49.689Z,10.13
2019-02-22T11:45:23.492Z,12.50
2019-02-22T11:47:52.452Z,11.00
2019-02-22T11:50:21.742Z,10.90
2019-02-22T11:52:50.721Z,10.27
2019-02-22T11:55:20.137Z,8.47
2019-02-22T11:57:49.291Z,8.27
2019-02-22T12:00:18.607Z,8.30
2019-02-22T12:02:48.233Z,8.10
2019-02-22T12:05:17.334Z,7.47
2019-02-22T12:07:46.532Z,11.73
2019-02-22T12:10:15.687Z,9.20
2019-02-22T12:12:44.683Z,12.43
2019-02-22T12:15:15.477Z,9.63
2019-02-22T12:17:44.857Z,10.23
2019-02-22T12:20:14.432Z,7.23
2019-02-22T12:22:43.453Z,8.50
2019-02-22T12:25:12.617Z,9.97
2019-02-22T12:27:41.866Z,9.57
2019-02-22T12:30:12.589Z,11.73
2019-02-22T12:32:41.690Z,11.33
2019-02-22T12:35:11.088Z,12.23
2019-02-22T12:37:40.373Z,11.23
2019-02-22T12:40:09.746Z,13.40
2019-02-22T12:42:39.077Z,8.87
2019-02-22T12:45:08.278Z,8.73
2019-02-22T12:47:37.303Z,10.40
2019-02-22T12:50:06.691Z,10.20
2019-02-22T12:52:35.709Z,9.67
2019-02-22T12:55:05.687Z,10.23
2019-02-22T12:57:34.740Z,11.07
2019-02-22T13:00:04.261Z,10.43
2019-02-22T13:02:42.617Z,14.77
2019-02-22T13:05:13.549Z,11.43
2019-02-22T13:07:42.530Z,12.13
2019-02-22T13:10:11.776Z,10.77
2019-02-22T13:12:40.868Z,11.73
2019-02-22T13:15:14.362Z,11.90
2019-02-22T13:17:42.195Z,13.10
2019-02-22T13:20:56.112Z,12.67
2019-02-22T13:23:25.324Z,12.23
2019-02-22T13:25:54.499Z,13.83
2019-02-22T13:28:23.510Z,13.33
2019-02-22T13:30:52.521Z,15.93
2019-02-22T13:33:21.553Z,16.60
2019-02-22T13:35:51.419Z,12.77
2019-02-22T13:38:20.473Z,14.37
2019-02-22T13:40:49.936Z,9.70
2019-02-22T13:43:19.926Z,10.63
2019-02-22T13:45:49.122Z,8.50
2019-02-22T13:48:18.324Z,12.10
2019-02-22T13:50:47.317Z,11.90
2019-02-22T13:53:16.562Z,11.87
2019-02-22T13:55:45.581Z,13.20
2019-02-22T13:58:14.609Z,13.78
2019-02-22T14:00:43.730Z,13.80
2019-02-22T14:03:12.732Z,11.77
2019-02-22T14:05:41.728Z,10.37
2019-02-22T14:08:10.695Z,9.60
2019-02-22T14:10:39.629Z,11.33
2019-02-22T14:13:08.637Z,8.87
2019-02-22T14:15:38.492Z,8.30
2019-02-22T14:18:07.921Z,8.07
2019-02-22T14:20:37.068Z,10.07
2019-02-22T14:23:06.104Z,9.63
2019-02-22T14:25:35.083Z,7.73
2019-02-22T14:28:04.087Z,8.73
2019-02-22T14:30:33.040Z,9.40
2019-02-22T14:33:02.047Z,9.20
2019-02-22T14:35:31.275Z,8.67
2019-02-22T14:38:04.045Z,10.70
2019-02-22T14:40:33.316Z,8.43
2019-02-22T14:43:02.392Z,8.93
2019-02-22T14:45:34.322Z,7.87
2019-02-22T14:48:03.973Z,8.07
2019-02-22T14:50:33.337Z,8.80
2019-02-22T14:53:04.209Z,10.87
2019-02-22T14:55:36.047Z,10.13
2019-02-22T14:58:05.348Z,9.33
2019-02-22T15:04:36.228Z,8.77
2019-02-22T15:07:05.534Z,22.83
2019-02-22T15:09:34.778Z,11.97
2019-02-22T15:12:04.049Z,11.43
2019-02-22T15:14:33.069Z,9.30
2019-02-22T15:17:27.234Z,9.17
2019-02-22T15:19:54.142Z,9.27
2019-02-22T15:22:23.191Z,9.40
2019-02-22T15:24:53.642Z,8.13
2019-02-22T15:27:22.826Z,10.47
2019-02-22T15:29:51.876Z,9.53
2019-02-22T15:32:20.818Z,7.70
2019-02-22T15:34:49.823Z,9.33
2019-02-22T15:37:18.803Z,8.40
2019-02-22T15:39:48.097Z,9.63
2019-02-22T15:42:17.261Z,12.30
2019-02-22T15:44:46.225Z,8.57
2019-02-22T15:47:15.255Z,7.83
2019-02-22T15:49:44.305Z,9.43
2019-02-22T15:52:13.371Z,7.47
2019-02-22T15:54:42.346Z,8.33
2019-02-22T15:57:11.273Z,8.50
2019-02-22T15:59:40.221Z,7.87
2019-02-22T16:02:09.235Z,8.20
2019-02-22T16:04:45.418Z,6.60
2019-02-22T16:07:14.339Z,8.20
2019-02-22T16:09:43.421Z,7.00
2019-02-22T16:12:12.443Z,7.17
2019-02-22T16:14:41.458Z,7.07
2019-02-22T16:17:10.597Z,8.03
2019-02-22T16:19:39.597Z,7.37
2019-02-22T16:22:12.168Z,7.53
2019-02-22T16:24:41.290Z,6.00
2019-02-22T16:27:10.236Z,7.07
2019-02-22T16:29:39.299Z,7.60
2019-02-22T16:32:08.657Z,9.53
2019-02-22T16:34:43.617Z,51.87
2019-02-22T16:37:08.454Z,18.07
2019-02-22T16:39:37.472Z,203.77
2019-02-22T16:42:06.653Z,90.13
2019-02-22T16:44:35.605Z,61.83
2019-02-22T16:47:04.735Z,54.27
2019-02-22T16:49:33.670Z,67.50
2019-02-22T16:52:02.627Z,43.67
2019-02-22T16:54:31.612Z,19.60
2019-02-22T16:57:00.666Z,16.57
2019-02-22T16:59:29.689Z,29.17
2019-02-22T17:01:58.688Z,34.67
2019-02-22T17:04:27.907Z,24.53
2019-02-22T17:06:56.905Z,11.30
2019-02-22T17:09:25.815Z,14.20
2019-02-22T17:12:05.837Z,11.13
2019-02-22T17:14:25.807Z,10.35
2019-02-22T17:16:54.793Z,10.73
2019-02-22T17:19:23.848Z,15.23
2019-02-22T17:21:52.924Z,31.70
2019-02-22T17:24:21.864Z,24.83
2019-02-22T17:26:50.900Z,17.42
2019-02-22T17:29:20.050Z,15.73
2019-02-22T17:31:51.619Z,11.43
2019-02-22T17:34:20.621Z,11.80
2019-02-22T17:36:49.803Z,14.68
2019-02-22T17:39:18.795Z,13.37
2019-02-22T17:41:49.215Z,11.97
2019-02-22T17:44:18.184Z,16.10
2019-02-22T17:46:57.244Z,16.50
2019-02-22T17:49:17.810Z,16.47
2019-02-22T17:54:54.090Z,16.70
2019-02-22T17:57:29.489Z,15.70
2019-02-22T18:03:48.602Z,18.87
2019-02-22T18:06:17.687Z,13.97
2019-02-22T18:08:46.616Z,19.97
2019-02-22T18:11:15.643Z,15.67
2019-02-22T18:13:44.860Z,15.87
2019-02-22T18:16:13.775Z,19.73
2019-02-22T18:18:42.743Z,20.43
2019-02-22T18:21:11.756Z,21.20
2019-02-22T18:23:40.776Z,22.90
2019-02-22T18:26:09.993Z,21.43
2019-02-22T18:28:39.073Z,21.20
2019-02-22T18:31:08.073Z,18.87
2019-02-22T18:33:37.109Z,17.97
2019-02-22T18:36:06.147Z,19.67
2019-02-22T18:38:35.232Z,18.90
2019-02-22T18:41:04.232Z,21.63
2019-02-22T18:43:33.208Z,18.90
2019-02-22T18:46:02.208Z,21.17
2019-02-22T18:48:31.999Z,19.83
2019-02-22T18:51:01.006Z,22.90
2019-02-22T18:53:30.039Z,19.77
2019-02-22T18:55:59.059Z,19.27
2019-02-22T18:58:28.089Z,18.00
2019-02-22T19:00:57.151Z,18.00
2019-02-22T19:03:26.083Z,20.97
2019-02-22T19:05:55.172Z,18.80
2019-02-22T19:08:32.106Z,22.65
2019-02-22T19:10:54.902Z,23.67
2019-02-22T19:13:23.898Z,18.33
2019-02-22T19:15:53.015Z,19.83
2019-02-22T19:18:22.061Z,16.60
2019-02-22T19:20:51.269Z,20.27
2019-02-22T19:23:21.350Z,21.53
2019-02-22T19:28:38.728Z,18.07
2019-02-22T19:31:07.948Z,17.83
2019-02-22T19:33:37.062Z,23.43
2019-02-22T19:36:06.183Z,21.47
2019-02-22T19:38:35.235Z,24.17
2019-02-22T19:41:04.181Z,23.37
2019-02-22T19:43:33.134Z,20.73
2019-02-22T19:46:02.184Z,21.87
2019-02-22T19:48:31.221Z,24.97
2019-02-22T19:51:00.164Z,19.33
2019-02-22T19:53:29.148Z,21.60
2019-02-22T19:55:58.124Z,23.50
2019-02-22T19:58:27.043Z,25.63
2019-02-22T20:00:56.092Z,24.30
2019-02-22T20:03:25.037Z,22.03
2019-02-22T20:05:53.986Z,20.70
2019-02-22T20:08:23.000Z,23.70
2019-02-22T20:10:52.080Z,23.50
2019-02-22T20:13:21.089Z,22.93
2019-02-22T20:15:50.069Z,18.73
2019-02-22T20:18:18.990Z,24.20
2019-02-22T20:20:48.379Z,24.80
2019-02-22T20:23:17.647Z,22.93
2019-02-22T20:25:46.591Z,23.77
2019-02-22T20:28:15.559Z,25.53
2019-02-22T20:30:44.647Z,24.23
2019-02-22T20:33:13.644Z,23.00
2019-02-22T20:35:42.576Z,22.23
2019-02-22T20:38:11.683Z,23.70
2019-02-22T20:40:40.590Z,26.63
2019-02-22T20:43:09.592Z,26.73
2019-02-22T20:45:38.709Z,89.53
2019-02-22T20:48:07.754Z,31.70
2019-02-22T20:50:36.731Z,31.23
2019-02-22T20:53:06.077Z,26.67
2019-02-22T20:55:35.103Z,26.67
2019-02-22T20:58:04.106Z,27.10
2019-02-22T21:00:33.166Z,25.73
2019-02-22T21:03:02.153Z,25.97
2019-02-22T21:05:31.184Z,25.77
2019-02-22T21:08:00.281Z,28.63
2019-02-22T21:10:29.233Z,26.37
2019-02-22T21:12:59.280Z,22.97
2019-02-22T21:15:43.344Z,28.30
2019-02-22T21:18:27.792Z,26.03
2019-02-22T21:20:56.880Z,35.77
2019-02-22T21:23:25.808Z,37.13
2019-02-22T21:25:54.752Z,39.83
2019-02-22T21:28:23.740Z,41.00
2019-02-22T21:30:52.784Z,39.90
2019-02-22T21:33:21.746Z,34.20
2019-02-22T21:35:50.862Z,34.03
2019-02-22T21:38:19.904Z,38.87
2019-02-22T21:40:48.869Z,29.87
2019-02-22T21:43:17.833Z,30.97
2019-02-22T21:45:46.753Z,28.27
2019-02-22T21:48:26.944Z,27.40
2019-02-22T21:50:46.767Z,28.97
2019-02-22T21:53:15.711Z,28.03
2019-02-22T21:55:47.162Z,27.87
2019-02-22T21:58:17.415Z,30.03
2019-02-22T22:00:46.373Z,28.43
2019-02-22T22:03:15.406Z,30.73
2019-02-22T22:05:44.341Z,27.53
2019-02-22T22:08:15.852Z,30.60
2019-02-22T22:10:47.604Z,26.43
2019-02-22T22:13:16.753Z,28.50
2019-02-22T22:15:48.692Z,27.50
2019-02-22T22:18:17.752Z,26.83
2019-02-22T22:20:46.819Z,28.50
2019-02-22T22:23:17.529Z,25.57
2019-02-22T22:25:46.755Z,29.53
2019-02-22T22:28:15.744Z,31.07
2019-02-22T22:30:44.830Z,25.33
2019-02-22T22:33:17.309Z,30.07
2019-02-22T22:35:49.315Z,29.57
2019-02-22T22:38:18.277Z,28.97
2019-02-22T22:40:48.383Z,27.70
2019-02-22T22:43:17.453Z,28.43
2019-02-22T22:45:46.486Z,29.07
2019-02-22T22:48:29.536Z,32.80
2019-02-22T22:50:58.606Z,27.97
2019-02-22T22:53:27.622Z,28.87
2019-02-22T22:55:56.851Z,28.83
2019-02-22T22:58:43.893Z,27.07
2019-02-22T23:02:03.525Z,29.37
2019-02-22T23:04:33.346Z,31.93
2019-02-22T23:07:02.428Z,29.90
2019-02-22T23:09:46.044Z,28.83
2019-02-22T23:12:15.002Z,31.30
2019-02-22T23:14:43.941Z,34.70
2019-02-22T23:18:07.140Z,26.87
2019-02-22T23:20:36.149Z,27.67
2019-02-22T23:23:27.788Z,26.43
2019-02-22T23:26:15.173Z,25.77
2019-02-22T23:29:38.010Z,25.17
2019-02-22T23:32:49.135Z,28.90
2019-02-22T23:35:18.289Z,24.40
2019-02-22T23:37:47.351Z,21.97
2019-02-22T23:40:24.535Z,21.83
2019-02-22T23:42:53.681Z,24.03
2019-02-22T23:45:23.874Z,24.13
2019-02-22T23:47:52.904Z,24.47
2019-02-22T23:57:49.388Z,22.43
